Jefferson, OH (44047)

9:47 AM EDT on March 24, 2017 (GMT -0400)
Jefferson Ohio | | Change Station

Elev 965 ft 41.74 °N, 80.77 °W | Updated 36 seconds ago

Overcast
Overcast
54.0 °F
Feels Like 54.0 °F
N
13.0
Wind Variable Wind from SSE

Today
High -- | Low -- °F
--% Chance of Precip.
Yesterday
High -- | Low -- °F
Precip. -- in
Pressure 30.12 in
Visibility 10.0 miles
Clouds Mostly Cloudy 6000 ft
Mostly Cloudy 7500 ft
Dew Point 39 °F
Humidity 59%
Rainfall 0.05 in
Snow Depth Not available.
7:19 AM 7:40 PM
Waning Crescent, 15% visible
METAR KHZY 241253Z AUTO 20013G22KT 10SM BKN060 BKN075 09/03 A3010 RMK AO2 SLP197 T00940033 TSNO
Pressure 30.12 in
Visibility 10.0 miles
Clouds Mostly Cloudy 6000 ft
Mostly Cloudy 7500 ft
Dew Point 39 °F
Humidity 59%
Rainfall 0.05 in
Snow Depth Not available.
7:19 AM 7:40 PM
Waning Crescent, 15% visible
METAR KHZY 241253Z AUTO 20013G22KT 10SM BKN060 BKN075 09/03 A3010 RMK AO2 SLP197 T00940033 TSNO

Get Severe Weather Alerts

Thanks for signing up!

Be on the lookout for a verification email in your inbox.

You'll start receiving the daily forecast at 8 AM.

×

10-Day Weather Forecast

Almanac

Astronomy

Mar. 24, 2017 Rise Set
Actual Time
Civil Twilight
Nautical Twilight
Astronomical Twilight
Moon
Length of Visible Light
Length of Day
Tomorrow will be .
, % of the Moon is Illuminated

Today's Extremes

State Highs State Lows

Community

WunderPhotos

Upload Photos

1,962,540 photos uploaded!

WunderBlog® & News

Nearby

Air Quality

  Air Quality AQ Index Pollutant
Not available.

Snow Depth

Station Depth Elevation

Earthquake Activity

City Distance Mag. Time & Date
Minimum magnitude displayed is 2.5.

Earthquake Activity

City Distance Mag. Time & Date
Minimum magnitude displayed is 2.5.

Coastal Water Temperatures

Place Temperature

Stations

Nearby Weather Stations

Station Location Temp. Windchill Dew Point Humidity Wind Precip. Elev Updated Type
                   

Watches & Warnings

There are currently no watches in effect.